Aviation Digital Data Service (ADDS)

Output produced by TAFs form (1436 UTC 10 December 2016)
found at http://aviationweather.gov/adds/tafs/
 
KDRO 101142Z 1012/1112 05003KT P6SM SCT250 
     FM102100 25006KT P6SM SCT250 
     FM110200 31005KT P6SM SCT250 
     FM110400 31005KT P6SM VCSH BKN110 
     FM110600 32006KT P6SM BKN070 
     FM110800 05005KT P6SM BKN060